createdAt,value
2023-03-11T00:04:49.603Z,1.95
2023-03-11T04:27:07.144Z,1.58
2023-03-11T04:28:07.153Z,1.53
2023-03-11T04:30:11.733Z,1.58
2023-03-11T04:31:11.953Z,1.58
2023-03-11T04:33:18.485Z,1.58
2023-03-11T04:34:17.049Z,1.60
2023-03-11T04:35:16.386Z,1.58
2023-03-11T04:36:16.421Z,1.57
2023-03-11T04:37:16.392Z,1.63
2023-03-11T04:38:16.599Z,1.52
2023-03-11T04:39:16.605Z,1.49
2023-03-11T04:40:16.837Z,1.50
2023-03-11T04:41:16.902Z,1.53
2023-03-11T04:42:17.091Z,1.61
2023-03-11T04:43:16.538Z,1.64
2023-03-11T04:44:16.690Z,1.61
2023-03-11T04:45:16.273Z,1.66
2023-03-11T04:46:16.865Z,1.68
2023-03-11T04:47:16.873Z,1.76
2023-03-11T04:48:16.065Z,1.82
2023-03-11T04:49:15.993Z,1.76
2023-03-11T04:50:15.977Z,1.84
2023-03-11T04:51:15.960Z,1.92
2023-03-11T04:52:15.990Z,1.95
2023-03-11T04:53:15.928Z,1.88
2023-03-11T04:54:15.914Z,1.95
2023-03-11T04:55:15.871Z,2.03
2023-03-11T04:56:15.853Z,2.00
2023-03-11T04:57:15.840Z,2.10
2023-03-11T04:58:15.816Z,2.16
2023-03-11T04:59:15.806Z,2.14
2023-03-11T05:00:15.851Z,2.18
2023-03-11T05:01:15.799Z,2.10
2023-03-11T05:02:15.727Z,2.15
2023-03-11T05:03:15.745Z,2.22
2023-03-11T05:04:15.759Z,2.19
2023-03-11T05:05:15.684Z,2.21
2023-03-11T05:06:15.665Z,2.23
2023-03-11T05:07:15.651Z,2.19
2023-03-11T05:08:15.618Z,2.19
2023-03-11T05:09:15.591Z,2.21
2023-03-11T05:10:15.588Z,2.26
2023-03-11T05:11:15.561Z,2.21
2023-03-11T05:12:15.544Z,2.21
2023-03-11T05:13:15.520Z,2.19
2023-03-11T05:14:15.521Z,2.21
2023-03-11T05:15:15.492Z,2.21
2023-03-11T05:16:15.506Z,2.19
2023-03-11T05:17:15.450Z,2.14
2023-03-11T05:18:15.442Z,2.12
2023-03-11T05:19:15.456Z,2.05
2023-03-11T05:20:16.008Z,2.15
2023-03-11T05:21:15.361Z,2.18
2023-03-11T05:22:15.329Z,2.16
2023-03-11T05:23:15.331Z,2.14
2023-03-11T05:24:15.306Z,2.21
2023-03-11T05:25:15.318Z,2.19
2023-03-11T05:26:15.260Z,2.25
2023-03-11T05:27:15.253Z,2.16
2023-03-11T05:28:15.211Z,2.14
2023-03-11T05:29:15.190Z,2.01
2023-03-11T05:30:15.189Z,1.97
2023-03-11T05:31:15.212Z,1.86
2023-03-11T05:32:15.347Z,1.93
2023-03-11T05:33:15.138Z,1.81
2023-03-11T05:34:15.100Z,1.70
2023-03-11T05:35:15.092Z,1.81
2023-03-11T05:36:15.080Z,1.64
2023-03-11T05:37:15.124Z,1.58
2023-03-11T05:38:15.016Z,1.57
2023-03-11T05:39:14.990Z,1.53
2023-03-11T05:40:14.986Z,1.56
2023-03-11T05:41:14.948Z,1.45
2023-03-11T05:42:14.940Z,1.43
2023-03-11T05:43:14.914Z,1.32
2023-03-11T05:44:14.894Z,1.31
2023-03-11T05:45:14.875Z,1.31
2023-03-11T05:46:14.929Z,1.28
2023-03-11T05:47:14.879Z,1.27
2023-03-11T05:48:14.824Z,1.32
2023-03-11T05:49:14.792Z,1.31
2023-03-11T05:50:14.785Z,1.31
2023-03-11T05:51:14.791Z,1.32
2023-03-11T05:52:14.796Z,1.32
2023-03-11T05:53:14.715Z,1.36
2023-03-11T05:54:14.695Z,1.34
2023-03-11T05:55:14.668Z,1.39
2023-03-11T05:56:14.655Z,1.42
2023-03-11T05:57:14.662Z,1.46
2023-03-11T05:58:14.641Z,1.53
2023-03-11T05:59:16.477Z,1.49
2023-03-11T06:00:14.584Z,1.49
2023-03-11T06:01:14.552Z,1.57
2023-03-11T06:02:14.562Z,1.49
2023-03-11T06:03:14.513Z,1.48
2023-03-11T06:04:14.679Z,1.50
2023-03-11T06:05:14.517Z,1.48
2023-03-11T06:06:14.444Z,1.38
2023-03-11T06:07:14.426Z,1.39
2023-03-11T06:08:14.410Z,1.42
2023-03-11T06:09:14.421Z,1.34
2023-03-11T06:10:14.379Z,1.30
2023-03-11T06:11:14.341Z,1.32
2023-03-11T06:12:14.319Z,1.34
2023-03-11T06:13:14.314Z,1.34
2023-03-11T06:14:14.281Z,1.31
2023-03-11T06:15:14.304Z,1.28
2023-03-11T06:16:14.320Z,1.30
2023-03-11T06:17:14.222Z,1.32
2023-03-11T06:18:14.207Z,1.28
2023-03-11T06:19:14.180Z,1.20
2023-03-11T06:20:14.166Z,1.27
2023-03-11T06:21:14.195Z,1.32
2023-03-11T06:22:14.120Z,1.28
2023-03-11T06:23:14.106Z,1.39
2023-03-11T06:24:14.082Z,1.49
2023-03-11T06:25:14.087Z,1.49
2023-03-11T06:26:14.055Z,1.68
2023-03-11T06:27:14.048Z,1.70
2023-03-11T06:28:14.003Z,1.79
2023-03-11T06:29:13.974Z,1.85
2023-03-11T06:30:13.972Z,2.01
2023-03-11T06:31:13.972Z,2.04
2023-03-11T06:32:13.953Z,2.15
2023-03-11T06:33:13.920Z,2.25
2023-03-11T06:34:13.885Z,2.32
2023-03-11T06:35:13.856Z,2.30
2023-03-11T06:36:13.836Z,2.37
2023-03-11T06:37:13.820Z,2.39
2023-03-11T06:38:13.852Z,2.43
2023-03-11T06:39:13.797Z,2.44
2023-03-11T06:40:13.757Z,2.52
2023-03-11T06:41:13.771Z,2.62
2023-03-11T06:42:13.745Z,2.68
2023-03-11T06:43:13.703Z,2.72
2023-03-11T06:44:13.681Z,2.76
2023-03-11T06:45:13.701Z,2.76
2023-03-11T06:46:13.788Z,2.87
2023-03-11T06:47:13.625Z,2.80
2023-03-11T06:48:13.616Z,2.95
2023-03-11T06:49:13.608Z,2.90
2023-03-11T06:50:13.569Z,3.00
2023-03-11T06:51:13.554Z,3.05
2023-03-11T06:52:13.523Z,3.03
2023-03-11T06:53:13.495Z,3.12
2023-03-11T06:54:13.478Z,3.03
2023-03-11T06:55:13.469Z,3.12
2023-03-11T06:56:13.452Z,3.13
2023-03-11T06:57:13.438Z,3.11
2023-03-11T06:58:13.455Z,3.13
2023-03-11T06:59:13.394Z,3.15
2023-03-11T07:00:13.379Z,3.12
2023-03-11T07:01:13.379Z,3.15
2023-03-11T07:02:13.326Z,3.22
2023-03-11T07:03:13.308Z,3.31
2023-03-11T07:04:13.334Z,3.22
2023-03-11T07:05:13.275Z,3.26
2023-03-11T07:06:13.271Z,3.36
2023-03-11T07:07:13.228Z,3.36
2023-03-11T07:08:13.206Z,3.37
2023-03-11T07:09:13.195Z,3.46
2023-03-11T07:10:13.170Z,3.48
2023-03-11T07:11:13.148Z,3.52
2023-03-11T07:12:13.145Z,3.61
2023-03-11T07:13:13.108Z,3.67
2023-03-11T07:14:13.092Z,3.70
2023-03-11T07:15:13.067Z,3.73
2023-03-11T07:16:13.154Z,3.70
2023-03-11T07:17:13.030Z,3.70
2023-03-11T07:18:13.021Z,3.77
2023-03-11T07:19:12.994Z,3.74
2023-03-11T07:20:12.993Z,3.78
2023-03-11T07:21:12.952Z,3.73
2023-03-11T07:22:12.952Z,3.70
2023-03-11T07:23:12.924Z,3.85
2023-03-11T07:24:12.897Z,3.82
2023-03-11T07:25:12.881Z,3.92
2023-03-11T07:26:12.856Z,4.02
2023-03-11T07:27:12.841Z,4.06
2023-03-11T07:28:12.829Z,4.14
2023-03-11T07:29:12.801Z,4.09
2023-03-11T07:30:12.787Z,4.12
2023-03-11T07:31:12.764Z,4.22
2023-03-11T07:32:12.801Z,4.34
2023-03-11T07:33:12.725Z,4.38
2023-03-11T07:34:12.704Z,4.58
2023-03-11T07:35:12.695Z,4.71
2023-03-11T07:36:12.681Z,4.86
2023-03-11T07:37:12.650Z,4.95
2023-03-11T07:38:12.636Z,5.07
2023-03-11T07:39:12.615Z,5.20
2023-03-11T07:40:12.594Z,5.29
2023-03-11T07:41:12.587Z,5.43
2023-03-11T07:42:12.553Z,5.56
2023-03-11T07:43:12.555Z,5.67
2023-03-11T07:44:12.523Z,5.69
2023-03-11T07:45:12.513Z,5.80
2023-03-11T07:46:12.531Z,5.98
2023-03-11T07:47:12.462Z,5.98
2023-03-11T07:48:12.447Z,6.13
2023-03-11T07:49:12.506Z,6.28
2023-03-11T07:50:12.411Z,6.53
2023-03-11T07:51:12.389Z,6.75
2023-03-11T07:52:12.369Z,6.87
2023-03-11T07:53:12.354Z,7.03
2023-03-11T07:54:12.347Z,7.22
2023-03-11T07:55:12.329Z,7.48
2023-03-11T07:56:12.297Z,7.78
2023-03-11T07:57:12.281Z,7.81
2023-03-11T07:58:12.263Z,8.02
2023-03-11T07:59:12.274Z,8.23
2023-03-11T08:00:12.233Z,8.42
2023-03-11T08:01:12.254Z,8.64
2023-03-11T08:02:12.219Z,8.75
2023-03-11T08:03:12.198Z,8.86
2023-03-11T08:04:14.464Z,8.81
2023-03-11T08:05:12.146Z,8.79
2023-03-11T08:06:12.148Z,8.74
2023-03-11T08:07:12.124Z,8.75
2023-03-11T08:08:12.100Z,8.66
2023-03-11T08:09:12.093Z,8.57
2023-03-11T08:10:12.070Z,8.45
2023-03-11T08:11:12.047Z,8.35
2023-03-11T08:12:12.033Z,8.28
2023-03-11T08:13:12.023Z,8.18
2023-03-11T08:14:12.011Z,8.17
2023-03-11T08:15:12.016Z,8.23
2023-03-11T08:16:12.010Z,8.14
2023-03-11T08:17:11.954Z,8.28
2023-03-11T08:18:11.942Z,8.38
2023-03-11T08:19:11.920Z,8.39
2023-03-11T08:20:11.904Z,8.42
2023-03-11T08:21:11.884Z,8.45
2023-03-11T08:22:11.867Z,8.53
2023-03-11T08:23:11.850Z,8.54
2023-03-11T08:24:11.840Z,8.93
2023-03-11T08:25:11.815Z,9.74
2023-03-11T08:26:11.804Z,10.84
2023-03-11T08:27:11.785Z,11.81
2023-03-11T08:28:11.767Z,12.26
2023-03-11T08:29:11.761Z,12.15
2023-03-11T08:30:11.744Z,11.99
2023-03-11T08:31:11.757Z,11.60
2023-03-11T08:32:11.717Z,11.43
2023-03-11T08:33:11.690Z,11.41
2023-03-11T08:34:11.675Z,11.48
2023-03-11T08:35:11.655Z,11.62
2023-03-11T08:36:11.652Z,11.81
2023-03-11T08:37:11.629Z,12.08
2023-03-11T08:38:11.615Z,12.44
2023-03-11T08:39:11.690Z,12.78
2023-03-11T08:40:11.580Z,13.09
2023-03-11T08:41:11.571Z,13.45
2023-03-11T08:42:11.568Z,13.78
2023-03-11T08:43:11.535Z,13.05
2023-03-11T08:44:11.518Z,12.45
2023-03-11T08:45:11.509Z,11.96
2023-03-11T08:46:11.541Z,11.44
2023-03-11T08:47:11.503Z,11.02
2023-03-11T08:48:11.461Z,10.69
2023-03-11T08:49:11.451Z,10.41
2023-03-11T08:50:11.429Z,10.45
2023-03-11T08:51:11.424Z,10.38
2023-03-11T08:52:11.401Z,10.36
2023-03-11T08:53:11.384Z,10.41
2023-03-11T08:54:11.406Z,10.46
2023-03-11T08:55:11.354Z,10.41
2023-03-11T08:56:11.336Z,10.39
2023-03-11T08:57:11.330Z,10.48
2023-03-11T08:58:11.314Z,11.16
2023-03-11T08:59:11.295Z,11.60
2023-03-11T09:00:13.086Z,11.53
2023-03-11T09:01:11.260Z,11.05
2023-03-11T09:02:11.253Z,10.58
2023-03-11T09:03:11.237Z,10.09
2023-03-11T09:04:11.211Z,9.81
2023-03-11T09:05:11.202Z,9.47
2023-03-11T09:06:11.232Z,9.03
2023-03-11T09:07:11.173Z,8.82
2023-03-11T09:08:11.152Z,8.77
2023-03-11T09:09:11.139Z,8.92
2023-03-11T09:10:11.119Z,9.24
2023-03-11T09:11:11.101Z,9.55
2023-03-11T09:12:11.088Z,9.80
2023-03-11T09:13:11.072Z,10.13
2023-03-11T09:14:11.087Z,10.42
2023-03-11T09:15:11.041Z,10.71
2023-03-11T09:16:11.129Z,11.48
2023-03-11T09:17:11.014Z,12.21
2023-03-11T09:18:11.001Z,13.33
2023-03-11T09:19:10.984Z,14.34
2023-03-11T09:20:11.029Z,15.04
2023-03-11T09:21:10.953Z,14.59
2023-03-11T09:22:10.940Z,13.68
2023-03-11T09:23:10.923Z,13.02
2023-03-11T09:24:10.992Z,12.63
2023-03-11T09:25:10.902Z,12.10
2023-03-11T09:26:10.883Z,11.93
2023-03-11T09:27:10.867Z,12.17
2023-03-11T09:28:10.855Z,12.39
2023-03-11T09:29:10.840Z,12.51
2023-03-11T09:30:10.831Z,12.63
2023-03-11T09:31:10.866Z,12.84
2023-03-11T09:32:10.797Z,12.81
2023-03-11T09:33:10.791Z,12.83
2023-03-11T09:34:10.768Z,13.02
2023-03-11T09:35:10.761Z,13.16
2023-03-11T09:36:10.737Z,13.40
2023-03-11T09:37:10.735Z,13.97
2023-03-11T09:38:10.724Z,14.53
2023-03-11T09:39:10.707Z,15.05
2023-03-11T09:40:10.684Z,15.65
2023-03-11T09:41:10.677Z,16.21
2023-03-11T09:42:10.666Z,16.54
2023-03-11T09:43:10.661Z,16.91
2023-03-11T09:44:10.632Z,17.54
2023-03-11T09:45:10.624Z,18.16
2023-03-11T09:46:10.624Z,18.88
2023-03-11T09:47:10.609Z,19.56
2023-03-11T09:48:10.597Z,20.02
2023-03-11T09:49:10.633Z,20.67
2023-03-11T09:50:10.580Z,20.86
2023-03-11T09:51:10.562Z,20.66
2023-03-11T09:52:10.553Z,20.02
2023-03-11T09:53:10.556Z,19.22
2023-03-11T09:54:10.538Z,18.78
2023-03-11T09:55:10.524Z,18.39
2023-03-11T09:56:10.525Z,18.30
2023-03-11T09:57:10.504Z,18.21
2023-03-11T09:58:10.508Z,18.48
2023-03-11T09:59:10.498Z,19.47
2023-03-11T10:00:10.485Z,21.66
2023-03-11T10:01:10.476Z,23.82
2023-03-11T10:02:10.634Z,25.98
2023-03-11T10:03:10.521Z,27.07
2023-03-11T10:04:10.452Z,25.74
2023-03-11T10:05:10.436Z,23.56
2023-03-11T10:06:10.425Z,21.72
2023-03-11T10:07:10.416Z,20.15
2023-03-11T10:08:10.414Z,18.85
2023-03-11T10:09:10.400Z,17.78
2023-03-11T10:10:10.404Z,16.94
2023-03-11T10:11:10.391Z,15.96
2023-03-11T10:12:10.368Z,15.15
2023-03-11T10:13:10.389Z,14.61
2023-03-11T10:14:10.351Z,14.13
2023-03-11T10:15:10.337Z,13.60
2023-03-11T10:16:10.376Z,13.13
2023-03-11T10:17:10.314Z,12.93
2023-03-11T10:18:10.313Z,12.80
2023-03-11T10:19:10.293Z,12.66
2023-03-11T10:20:10.288Z,12.66
2023-03-11T10:21:10.269Z,12.62
2023-03-11T10:22:10.269Z,12.58
2023-03-11T10:23:10.240Z,12.61
2023-03-11T10:24:10.228Z,12.65
2023-03-11T10:25:10.241Z,15.00
2023-03-11T10:26:10.217Z,19.66
2023-03-11T10:27:10.189Z,23.92
2023-03-11T10:28:10.174Z,27.81
2023-03-11T10:29:10.165Z,31.20
2023-03-11T10:30:10.161Z,34.25
2023-03-11T10:31:10.150Z,36.31
2023-03-11T10:32:10.703Z,37.79
2023-03-11T10:33:10.134Z,39.15
2023-03-11T10:34:10.117Z,41.08
2023-03-11T10:35:10.128Z,43.38
2023-03-11T10:36:10.121Z,45.05
2023-03-11T10:37:10.089Z,46.43
2023-03-11T10:38:10.084Z,47.11
2023-03-11T10:39:10.081Z,47.55
2023-03-11T10:40:10.090Z,45.83
2023-03-11T10:41:10.073Z,42.09
2023-03-11T10:42:10.060Z,38.25
2023-03-11T10:43:10.049Z,34.41
2023-03-11T10:44:10.045Z,31.17
2023-03-11T10:45:10.037Z,28.56
2023-03-11T10:46:10.089Z,26.33
2023-03-11T10:47:10.030Z,24.31
2023-03-11T10:48:10.018Z,22.67
2023-03-11T10:49:10.013Z,21.05
2023-03-11T10:50:10.008Z,19.75
2023-03-11T10:51:10.000Z,18.79
2023-03-11T10:52:10.250Z,17.91
2023-03-11T10:53:09.980Z,17.17
2023-03-11T10:54:09.972Z,16.47
2023-03-11T10:55:09.960Z,15.92
2023-03-11T10:56:09.950Z,15.60
2023-03-11T10:57:09.941Z,15.26
2023-03-11T10:58:09.931Z,15.08
2023-03-11T10:59:09.918Z,14.90
2023-03-11T11:00:09.915Z,14.81
2023-03-11T11:01:09.957Z,14.70
2023-03-11T11:02:09.888Z,14.77
2023-03-11T11:03:09.877Z,14.78
2023-03-11T11:04:09.873Z,14.85
2023-03-11T11:05:09.891Z,14.74
2023-03-11T11:06:09.868Z,14.77
2023-03-11T11:07:09.830Z,15.04
2023-03-11T11:08:09.817Z,16.39
2023-03-11T11:09:09.806Z,20.89
2023-03-11T11:10:09.792Z,25.56
2023-03-11T11:11:09.777Z,29.24
2023-03-11T11:12:09.768Z,32.41
2023-03-11T11:13:09.760Z,34.55
2023-03-11T11:14:09.749Z,36.67
2023-03-11T11:15:09.738Z,39.39
2023-03-11T11:16:09.792Z,40.89
2023-03-11T11:17:09.718Z,40.57
2023-03-11T11:18:09.756Z,41.73
2023-03-11T11:19:09.716Z,42.80
2023-03-11T11:20:09.692Z,41.64
2023-03-11T11:21:09.689Z,40.64
2023-03-11T11:22:09.676Z,39.51
2023-03-11T11:23:09.668Z,37.75
2023-03-11T11:24:09.667Z,35.60
2023-03-11T11:25:09.684Z,34.04
2023-03-11T11:26:09.650Z,32.82
2023-03-11T11:27:09.640Z,31.85
2023-03-11T11:28:09.635Z,30.52
2023-03-11T11:29:09.949Z,29.58
2023-03-11T11:30:09.620Z,28.34
2023-03-11T11:31:09.647Z,27.00
2023-03-11T11:32:09.605Z,25.86
2023-03-11T11:33:09.598Z,24.51
2023-03-11T11:34:09.592Z,23.28
2023-03-11T11:35:09.580Z,22.14
2023-03-11T11:36:09.573Z,21.22
2023-03-11T11:37:09.567Z,20.44
2023-03-11T11:38:09.562Z,19.67
2023-03-11T11:39:09.545Z,18.78
2023-03-11T11:40:11.169Z,17.94
2023-03-11T11:41:09.532Z,17.31
2023-03-11T11:42:09.513Z,16.91
2023-03-11T11:43:09.501Z,16.51
2023-03-11T11:44:09.507Z,16.22
2023-03-11T11:45:09.483Z,15.99
2023-03-11T11:46:09.492Z,15.72
2023-03-11T11:47:09.461Z,15.45
2023-03-11T11:48:09.456Z,15.25
2023-03-11T11:49:09.439Z,14.99
2023-03-11T11:50:09.426Z,14.73
2023-03-11T11:51:09.510Z,14.56
2023-03-11T11:52:09.409Z,14.48
2023-03-11T11:53:09.398Z,14.41
2023-03-11T11:54:09.385Z,14.31
2023-03-11T11:55:09.365Z,14.22
2023-03-11T11:56:09.358Z,13.91
2023-03-11T11:57:09.358Z,13.67
2023-03-11T11:58:09.329Z,13.45
2023-03-11T11:59:09.315Z,13.19
2023-03-11T12:00:09.317Z,13.03
2023-03-11T12:01:09.315Z,12.91
2023-03-11T12:02:09.276Z,12.86
2023-03-11T12:03:09.260Z,12.80
2023-03-11T12:04:09.265Z,12.80
2023-03-11T12:05:09.291Z,12.80
2023-03-11T12:06:09.221Z,12.78
2023-03-11T12:07:09.215Z,12.86
2023-03-11T12:08:09.191Z,12.91
2023-03-11T12:09:09.182Z,13.08
2023-03-11T12:10:21.677Z,13.17
2023-03-11T12:11:09.160Z,13.31
2023-03-11T12:12:09.132Z,13.50
2023-03-11T12:13:09.129Z,13.75
2023-03-11T12:14:09.113Z,14.07
2023-03-11T12:15:09.103Z,14.36
2023-03-11T12:16:09.156Z,14.48
2023-03-11T12:17:09.065Z,14.62
2023-03-11T12:18:09.151Z,14.85
2023-03-11T12:19:09.037Z,14.89
2023-03-11T12:20:09.016Z,14.90
2023-03-11T12:21:09.006Z,14.78
2023-03-11T12:22:09.157Z,14.52
2023-03-11T12:23:09.065Z,14.26
2023-03-11T12:24:08.969Z,14.12
2023-03-11T12:25:08.953Z,13.91
2023-03-11T12:26:08.958Z,13.64
2023-03-11T12:27:08.919Z,13.20
2023-03-11T12:28:08.915Z,12.88
2023-03-11T12:29:09.085Z,12.72
2023-03-11T12:30:08.882Z,12.65
2023-03-11T12:31:09.081Z,12.63
2023-03-11T12:32:08.859Z,12.61
2023-03-11T12:33:08.829Z,12.58
2023-03-11T12:34:09.493Z,12.63
2023-03-11T12:35:08.801Z,12.48
2023-03-11T12:36:08.853Z,12.62
2023-03-11T12:37:08.784Z,12.57
2023-03-11T12:38:08.762Z,12.72
2023-03-11T12:39:08.748Z,12.90
2023-03-11T12:40:08.729Z,13.02
2023-03-11T12:41:08.716Z,13.05
2023-03-11T12:42:08.795Z,13.02
2023-03-11T12:43:08.685Z,13.02
2023-03-11T12:44:08.680Z,13.09
2023-03-11T12:45:08.657Z,13.20
2023-03-11T12:46:08.652Z,13.45
2023-03-11T12:47:08.628Z,13.49
2023-03-11T12:48:08.609Z,13.70
2023-03-11T12:49:08.592Z,13.71
2023-03-11T12:50:08.581Z,13.73
2023-03-11T12:51:08.587Z,14.07
2023-03-11T12:52:08.559Z,14.48
2023-03-11T12:53:08.546Z,14.79
2023-03-11T12:54:08.523Z,15.04
2023-03-11T12:55:08.518Z,15.32
2023-03-11T12:56:08.506Z,15.44
2023-03-11T12:57:08.477Z,15.59
2023-03-11T12:58:08.478Z,15.73
2023-03-11T12:59:08.446Z,15.62
2023-03-11T13:00:08.445Z,15.70
2023-03-11T13:01:08.427Z,15.48
2023-03-11T13:02:08.402Z,15.10
2023-03-11T13:03:08.417Z,14.99
2023-03-11T13:04:08.375Z,15.04
2023-03-11T13:05:08.380Z,15.04
2023-03-11T13:06:08.351Z,14.82
2023-03-11T13:07:08.338Z,14.89
2023-03-11T13:08:08.313Z,14.73
2023-03-11T13:09:08.922Z,14.77
2023-03-11T13:10:08.392Z,14.85
2023-03-11T13:11:08.396Z,14.99
2023-03-11T13:12:08.561Z,14.94
2023-03-11T13:13:08.779Z,14.86
2023-03-11T13:14:08.234Z,14.82
2023-03-11T13:15:08.215Z,14.63
2023-03-11T13:16:08.751Z,14.61
2023-03-11T13:17:08.187Z,14.53
2023-03-11T13:18:08.173Z,14.55
2023-03-11T13:19:08.155Z,14.52
2023-03-11T13:20:08.143Z,14.36
2023-03-11T13:21:08.124Z,14.28
2023-03-11T13:22:08.642Z,14.22
2023-03-11T13:23:08.448Z,14.07
2023-03-11T13:24:08.172Z,13.94
2023-03-11T13:25:08.299Z,14.00
2023-03-11T13:26:08.057Z,13.80
2023-03-11T13:27:08.037Z,13.70
2023-03-11T13:28:08.072Z,13.55
2023-03-11T13:29:08.153Z,13.20
2023-03-11T13:30:08.011Z,12.78
2023-03-11T13:31:07.998Z,12.45
2023-03-11T13:32:07.977Z,12.08
2023-03-11T13:33:07.956Z,11.83
2023-03-11T13:34:07.960Z,11.63
2023-03-11T13:35:07.935Z,11.48
2023-03-11T13:36:08.328Z,11.22
2023-03-11T13:37:07.920Z,10.92
2023-03-11T13:38:07.885Z,10.77
2023-03-11T13:39:07.865Z,10.58
2023-03-11T13:40:07.859Z,10.43
2023-03-11T13:41:07.833Z,10.33
2023-03-11T13:42:07.818Z,10.15
2023-03-11T13:43:07.819Z,10.02
2023-03-11T13:44:07.789Z,9.95
2023-03-11T13:45:07.802Z,10.02
2023-03-11T13:46:07.896Z,9.92
2023-03-11T13:47:07.742Z,9.88
2023-03-11T13:48:07.736Z,9.84
2023-03-11T13:49:07.709Z,9.80
2023-03-11T13:50:07.711Z,9.59
2023-03-11T13:51:07.698Z,9.59
2023-03-11T13:52:07.674Z,9.44
2023-03-11T13:53:07.652Z,9.31
2023-03-11T13:54:07.637Z,9.29
2023-03-11T13:55:07.629Z,9.22
2023-03-11T13:56:07.605Z,9.11
2023-03-11T13:57:07.610Z,9.03
2023-03-11T13:58:07.591Z,9.05
2023-03-11T13:59:07.560Z,9.03
2023-03-11T14:00:07.550Z,9.05
2023-03-11T14:01:07.555Z,9.00
2023-03-11T14:02:07.510Z,9.05
2023-03-11T14:03:07.497Z,9.08
2023-03-11T14:04:07.510Z,9.13
2023-03-11T14:05:07.463Z,9.31
2023-03-11T14:06:07.448Z,9.40
2023-03-11T14:07:07.434Z,9.44
2023-03-11T14:08:07.427Z,9.66
2023-03-11T14:09:07.392Z,9.74
2023-03-11T14:10:07.383Z,9.81
2023-03-11T14:11:07.402Z,9.84
2023-03-11T14:12:07.352Z,9.92
2023-03-11T14:13:07.334Z,9.85
2023-03-11T14:14:07.314Z,9.81
2023-03-11T14:15:07.299Z,9.76
2023-03-11T14:16:07.365Z,9.69
2023-03-11T14:17:07.261Z,9.49
2023-03-11T14:18:07.246Z,9.51
2023-03-11T14:19:07.225Z,9.40
2023-03-11T14:20:07.325Z,9.19
2023-03-11T14:21:07.212Z,9.12
2023-03-11T14:22:07.184Z,9.13
2023-03-11T14:23:07.168Z,9.05
2023-03-11T14:24:07.151Z,8.99
2023-03-11T14:25:07.127Z,8.92
2023-03-11T14:26:07.126Z,8.72
2023-03-11T14:27:07.098Z,8.81
2023-03-11T14:28:07.077Z,8.72
2023-03-11T14:29:07.078Z,8.82
2023-03-11T14:30:07.059Z,8.84
2023-03-11T14:31:07.028Z,8.90
2023-03-11T14:32:07.025Z,8.89
2023-03-11T14:33:06.996Z,8.90
2023-03-11T14:34:06.983Z,8.90
2023-03-11T14:35:06.959Z,8.87
2023-03-11T14:36:07.040Z,8.77
2023-03-11T14:37:06.934Z,8.66
2023-03-11T14:38:06.921Z,8.57
2023-03-11T14:39:06.904Z,8.53
2023-03-11T14:40:06.881Z,8.60
2023-03-11T14:41:06.867Z,8.60
2023-03-11T14:42:06.850Z,8.50
2023-03-11T14:43:06.828Z,8.38
2023-03-11T14:44:06.827Z,8.39
2023-03-11T14:45:06.844Z,8.41
2023-03-11T14:46:06.797Z,8.32
2023-03-11T14:47:06.773Z,8.39
2023-03-11T14:48:06.774Z,8.39
2023-03-11T14:49:06.776Z,8.57
2023-03-11T14:50:06.826Z,8.56
2023-03-11T14:51:06.695Z,8.56
2023-03-11T14:52:06.697Z,8.66
2023-03-11T14:53:06.702Z,8.53
2023-03-11T14:54:06.649Z,8.60
2023-03-11T14:55:06.634Z,8.57
2023-03-11T14:56:06.621Z,8.60
2023-03-11T14:57:06.601Z,8.57
2023-03-11T14:58:06.609Z,8.56
2023-03-11T14:59:07.965Z,8.54
2023-03-11T15:00:06.599Z,8.56
2023-03-11T15:01:06.547Z,8.71
2023-03-11T15:02:06.520Z,8.72
2023-03-11T15:03:06.539Z,8.78
2023-03-11T15:04:06.483Z,8.82
2023-03-11T15:05:06.470Z,8.86
2023-03-11T15:06:06.476Z,9.00
2023-03-11T15:07:06.461Z,9.31
2023-03-11T15:08:06.441Z,9.51
2023-03-11T15:09:06.412Z,9.54
2023-03-11T15:10:06.410Z,9.55
2023-03-11T15:11:06.382Z,9.49
2023-03-11T15:12:06.359Z,9.45
2023-03-11T15:13:06.354Z,9.34
2023-03-11T15:14:06.314Z,9.40
2023-03-11T15:15:06.324Z,9.47
2023-03-11T15:16:06.282Z,9.56
2023-03-11T15:18:48.189Z,9.66
2023-03-11T15:19:48.142Z,9.54
2023-03-11T15:20:48.126Z,9.55
2023-03-11T15:21:48.108Z,9.52
2023-03-11T15:22:48.120Z,9.54
2023-03-11T15:23:48.073Z,9.42
2023-03-11T15:24:48.061Z,9.36
2023-03-11T15:25:48.054Z,9.39
2023-03-11T15:26:48.025Z,9.34
2023-03-11T15:27:48.016Z,9.39
2023-03-11T15:28:47.996Z,9.37
2023-03-11T15:29:47.978Z,9.13
2023-03-11T15:30:47.975Z,8.90
2023-03-11T15:31:47.950Z,8.77
2023-03-11T15:32:47.944Z,8.56
2023-03-11T15:33:47.912Z,8.45
2023-03-11T15:34:47.903Z,8.27
2023-03-11T15:35:47.914Z,8.16
2023-03-11T15:36:47.868Z,7.95
2023-03-11T15:37:47.945Z,7.74
2023-03-11T15:38:47.837Z,7.59
2023-03-11T15:39:47.813Z,7.47
2023-03-11T15:40:47.797Z,7.36
2023-03-11T15:41:47.790Z,7.33
2023-03-11T15:42:47.772Z,7.41
2023-03-11T15:43:47.755Z,7.44
2023-03-11T15:44:47.734Z,7.58
2023-03-11T15:45:47.767Z,7.59
2023-03-11T15:46:47.703Z,7.69
2023-03-11T15:47:47.683Z,7.87
2023-03-11T15:48:47.669Z,7.84
2023-03-11T15:49:47.666Z,7.99
2023-03-11T15:50:53.226Z,7.99
2023-03-11T15:51:47.617Z,7.96
2023-03-11T15:52:47.600Z,7.93
2023-03-11T15:53:47.588Z,7.99
2023-03-11T15:54:55.513Z,8.01
2023-03-11T15:55:47.547Z,7.93
2023-03-11T15:56:47.532Z,7.96
2023-03-11T15:57:47.511Z,7.75
2023-03-11T15:58:47.506Z,7.75
2023-03-11T15:59:47.488Z,7.55
2023-03-11T16:00:47.470Z,7.41
2023-03-11T16:01:47.447Z,7.21
2023-03-11T16:02:47.432Z,7.04
2023-03-11T16:03:47.502Z,6.96
2023-03-11T16:04:47.562Z,6.78
2023-03-11T16:05:47.393Z,6.75
2023-03-11T16:06:56.510Z,6.56
2023-03-11T16:07:47.345Z,6.35
2023-03-11T16:08:47.327Z,6.26
2023-03-11T16:09:47.328Z,5.97
2023-03-11T16:10:47.303Z,5.97
2023-03-11T16:11:47.281Z,5.74
2023-03-11T16:12:47.259Z,5.70
2023-03-11T16:13:47.242Z,5.52
2023-03-11T16:14:47.230Z,5.41
2023-03-11T16:15:47.385Z,5.37
2023-03-11T16:16:47.192Z,5.23
2023-03-11T16:17:50.073Z,5.15
2023-03-11T16:18:47.158Z,4.97
2023-03-11T16:19:49.588Z,4.94
2023-03-11T16:20:47.125Z,4.79
2023-03-11T16:21:47.108Z,4.67
2023-03-11T16:22:47.091Z,4.53
2023-03-11T16:23:51.846Z,4.39
2023-03-11T16:24:47.057Z,4.38
2023-03-11T16:25:47.058Z,4.32
2023-03-11T16:26:47.028Z,4.24
2023-03-11T16:27:47.005Z,4.18
2023-03-11T16:28:46.984Z,4.13
2023-03-11T16:29:46.972Z,4.12
2023-03-11T16:30:46.985Z,4.06
2023-03-11T16:31:46.935Z,3.91
2023-03-11T16:32:46.927Z,3.95
2023-03-11T16:33:46.914Z,3.82
2023-03-11T16:34:46.881Z,3.92
2023-03-11T16:35:46.909Z,3.73
2023-03-11T16:36:46.845Z,3.74
2023-03-11T16:37:46.828Z,3.68
2023-03-11T16:38:46.817Z,3.61
2023-03-11T16:39:46.791Z,3.59
2023-03-11T16:40:46.794Z,3.52
2023-03-11T16:41:46.859Z,3.45
2023-03-11T16:42:46.756Z,3.36
2023-03-11T16:43:46.719Z,3.24
2023-03-11T16:44:46.719Z,3.24
2023-03-11T16:45:46.687Z,3.16
2023-03-11T16:46:46.711Z,3.24
2023-03-11T16:47:46.652Z,3.13
2023-03-11T16:48:46.634Z,3.08
2023-03-11T16:49:46.619Z,3.15
2023-03-11T16:50:46.603Z,3.12
2023-03-11T16:51:46.578Z,3.08
2023-03-11T16:52:46.566Z,3.01
2023-03-11T16:53:46.547Z,3.05
2023-03-11T16:54:46.528Z,2.95
2023-03-11T16:55:46.513Z,2.97
2023-03-11T16:56:46.492Z,2.82
2023-03-11T16:57:46.509Z,2.95
2023-03-11T16:58:46.453Z,2.87
2023-03-11T16:59:46.433Z,2.94
2023-03-11T17:00:46.418Z,2.79
2023-03-11T17:01:46.426Z,2.80
2023-03-11T17:02:46.383Z,2.82
2023-03-11T17:03:46.360Z,2.64
2023-03-11T17:04:46.353Z,2.64
2023-03-11T17:05:46.330Z,2.52
2023-03-11T17:06:46.312Z,2.52
2023-03-11T17:07:46.300Z,2.47
2023-03-11T17:08:46.277Z,2.32
2023-03-11T17:09:46.272Z,2.52
2023-03-11T17:10:46.241Z,2.44
2023-03-11T17:11:46.226Z,2.37
2023-03-11T17:12:46.200Z,2.26
2023-03-11T17:13:46.212Z,2.25
2023-03-11T17:14:46.172Z,2.23
2023-03-11T17:15:46.150Z,2.25
2023-03-11T17:16:46.127Z,2.16
2023-03-11T17:17:46.114Z,2.12
2023-03-11T17:18:46.094Z,2.01
2023-03-11T17:19:46.076Z,2.01
2023-03-11T17:20:46.058Z,2.00
2023-03-11T17:21:46.039Z,1.92
2023-03-11T17:22:46.022Z,1.85
2023-03-11T17:23:46.001Z,1.81
2023-03-11T17:24:45.982Z,1.79
2023-03-11T17:25:45.964Z,1.53
2023-03-11T17:26:45.949Z,1.57
2023-03-11T17:27:45.933Z,1.49
2023-03-11T17:28:45.906Z,1.48
2023-03-11T17:29:45.910Z,1.38
2023-03-11T17:30:45.878Z,1.36
2023-03-11T17:31:45.940Z,1.30
2023-03-11T17:32:45.898Z,1.21
2023-03-11T17:33:45.822Z,1.18
2023-03-11T17:34:45.803Z,1.10
2023-03-11T17:35:45.822Z,1.10
2023-03-11T17:36:45.756Z,1.00
2023-03-11T17:37:45.747Z,1.07